createdAt,value
2023-05-16T00:01:27.136Z,32.40
2023-05-16T00:04:29.697Z,32.30
2023-05-16T00:07:32.761Z,31.90
2023-05-16T00:10:35.006Z,32.10
2023-05-16T00:13:37.609Z,32.20
2023-05-16T00:16:41.863Z,32.10
2023-05-16T00:19:44.887Z,32.10
2023-05-16T00:22:47.136Z,32.00
2023-05-16T00:25:49.431Z,32.00
2023-05-16T00:28:51.754Z,31.90
2023-05-16T00:31:53.755Z,31.80
2023-05-16T00:34:56.267Z,31.50
2023-05-16T00:37:58.192Z,31.60
2023-05-16T00:41:00.597Z,31.70
2023-05-16T00:44:02.513Z,31.70
2023-05-16T00:47:04.994Z,31.80
2023-05-16T00:50:07.468Z,31.80
2023-05-16T00:53:10.137Z,31.80
2023-05-16T00:56:12.186Z,31.20
2023-05-16T00:59:14.505Z,31.30
2023-05-16T01:02:17.107Z,31.40
2023-05-16T01:05:20.527Z,31.30
2023-05-16T01:08:22.507Z,31.60
2023-05-16T01:11:53.041Z,31.80
2023-05-16T01:15:07.760Z,31.70
2023-05-16T01:18:18.969Z,31.80
2023-05-16T01:21:49.051Z,31.80
2023-05-16T01:25:50.734Z,31.80
2023-05-16T01:28:54.123Z,31.80
2023-05-16T01:31:56.108Z,32.00
2023-05-16T01:34:58.417Z,32.00
2023-05-16T01:38:25.923Z,32.00
2023-05-16T01:41:35.599Z,32.10
2023-05-16T01:44:49.054Z,32.10
2023-05-16T01:48:17.614Z,32.20
2023-05-16T01:51:22.837Z,32.30
2023-05-16T01:54:29.778Z,32.30
2023-05-16T01:57:32.619Z,32.30
2023-05-16T02:00:35.312Z,32.50
2023-05-16T02:03:38.232Z,32.50
2023-05-16T02:06:40.950Z,32.50
2023-05-16T02:09:42.904Z,32.50
2023-05-16T02:12:45.346Z,32.30
2023-05-16T02:15:47.493Z,32.30
2023-05-16T02:18:49.676Z,32.60
2023-05-16T02:21:51.810Z,32.50
2023-05-16T02:24:54.058Z,32.40
2023-05-16T02:27:56.565Z,32.30
2023-05-16T02:31:00.254Z,32.50
2023-05-16T02:34:02.614Z,32.40
2023-05-16T02:37:05.119Z,32.40
2023-05-16T02:40:10.498Z,32.40
2023-05-16T02:43:13.110Z,32.40
2023-05-16T02:46:25.872Z,32.30
2023-05-16T02:49:28.076Z,32.30
2023-05-16T02:52:30.078Z,32.30
2023-05-16T02:55:32.310Z,32.20
2023-05-16T02:58:34.335Z,32.30
2023-05-16T03:01:36.817Z,32.30
2023-05-16T03:04:38.719Z,32.30
2023-05-16T03:07:41.463Z,32.40
2023-05-16T03:10:43.741Z,32.50
2023-05-16T03:13:46.225Z,32.60
2023-05-16T03:16:48.308Z,32.60
2023-05-16T03:19:51.320Z,32.70
2023-05-16T03:22:53.253Z,32.70
2023-05-16T03:25:56.154Z,32.60
2023-05-16T03:28:59.165Z,32.60
2023-05-16T03:32:01.742Z,32.60
2023-05-16T03:35:04.050Z,32.70
2023-05-16T03:38:06.578Z,32.80
2023-05-16T03:41:08.559Z,32.80
2023-05-16T03:44:10.788Z,32.70
2023-05-16T03:47:12.785Z,32.80
2023-05-16T03:50:15.446Z,32.90
2023-05-16T03:53:17.427Z,32.90
2023-05-16T03:56:19.825Z,33.00
2023-05-16T03:59:21.819Z,32.90
2023-05-16T04:02:24.526Z,32.90
2023-05-16T04:05:26.890Z,32.90
2023-05-16T04:08:29.814Z,32.90
2023-05-16T04:11:31.983Z,32.90
2023-05-16T04:14:35.377Z,33.10
2023-05-16T04:17:37.448Z,33.20
2023-05-16T04:20:39.702Z,33.40
2023-05-16T04:23:42.149Z,33.80
2023-05-16T04:26:44.765Z,33.90
2023-05-16T04:29:46.847Z,34.10
2023-05-16T04:32:49.108Z,34.20
2023-05-16T04:35:52.980Z,34.50
2023-05-16T04:38:55.462Z,34.50
2023-05-16T04:41:59.238Z,34.60
2023-05-16T04:45:03.549Z,34.90
2023-05-16T04:48:05.733Z,35.20
2023-05-16T04:51:08.145Z,35.50
2023-05-16T04:54:10.780Z,36.30
2023-05-16T04:57:13.284Z,37.50
2023-05-16T05:00:16.293Z,38.60
2023-05-16T05:03:18.833Z,39.50
2023-05-16T05:06:20.816Z,39.90
2023-05-16T05:09:23.498Z,40.10
2023-05-16T05:12:27.148Z,40.60
2023-05-16T05:15:29.778Z,41.10
2023-05-16T05:18:32.548Z,41.40
2023-05-16T05:21:35.279Z,41.60
2023-05-16T05:24:37.352Z,41.20
2023-05-16T05:27:39.594Z,40.60
2023-05-16T05:30:43.226Z,40.40
2023-05-16T05:33:45.985Z,40.20
2023-05-16T05:36:47.938Z,39.90
2023-05-16T05:39:50.206Z,39.80
2023-05-16T05:42:52.249Z,39.80
2023-05-16T05:45:55.802Z,39.30
2023-05-16T05:48:58.746Z,38.90
2023-05-16T05:52:01.109Z,38.60
2023-05-16T05:55:03.057Z,39.00
2023-05-16T05:58:07.216Z,39.00
2023-05-16T06:01:11.348Z,39.00
2023-05-16T06:04:13.567Z,39.20
2023-05-16T06:07:16.851Z,39.90
2023-05-16T06:10:19.384Z,40.30
2023-05-16T06:13:21.491Z,40.70
2023-05-16T06:16:26.566Z,41.00
2023-05-16T06:19:28.617Z,41.40
2023-05-16T06:22:31.355Z,41.70
2023-05-16T06:25:33.246Z,41.40
2023-05-16T06:28:35.522Z,40.60
2023-05-16T06:31:37.562Z,40.10
2023-05-16T06:34:40.111Z,39.20
2023-05-16T06:37:43.054Z,39.10
2023-05-16T06:40:45.667Z,39.20
2023-05-16T06:43:48.037Z,39.80
2023-05-16T06:46:50.425Z,39.80
2023-05-16T06:49:52.847Z,39.60
2023-05-16T06:52:55.184Z,39.80
2023-05-16T06:55:57.254Z,40.20
2023-05-16T06:59:01.701Z,40.60
2023-05-16T07:02:03.742Z,40.40
2023-05-16T07:05:07.160Z,40.60
2023-05-16T07:08:12.436Z,40.70
2023-05-16T07:11:14.779Z,40.80
2023-05-16T07:14:16.786Z,40.60
2023-05-16T07:17:19.249Z,40.90
2023-05-16T07:20:21.449Z,40.60
2023-05-16T07:23:23.687Z,40.10
2023-05-16T07:26:26.637Z,40.00
2023-05-16T07:29:30.390Z,39.80
2023-05-16T07:32:32.470Z,39.80
2023-05-16T07:35:34.832Z,40.40
2023-05-16T07:38:36.831Z,40.30
2023-05-16T07:41:39.111Z,40.50
2023-05-16T07:44:41.077Z,40.60
2023-05-16T07:47:43.420Z,40.80
2023-05-16T07:50:45.508Z,40.80
2023-05-16T07:53:48.095Z,40.70
2023-05-16T07:56:52.745Z,40.80
2023-05-16T07:59:55.443Z,40.30
2023-05-16T08:02:58.278Z,40.40
2023-05-16T08:06:00.758Z,40.40
2023-05-16T08:09:03.042Z,40.30
2023-05-16T08:12:05.853Z,40.30
2023-05-16T08:15:09.110Z,40.50
2023-05-16T08:18:16.553Z,40.60
2023-05-16T08:21:18.712Z,40.70
2023-05-16T08:24:21.325Z,40.90
2023-05-16T08:27:23.910Z,40.80
2023-05-16T08:30:26.564Z,40.70
2023-05-16T08:33:28.597Z,40.50
2023-05-16T08:36:31.698Z,40.40
2023-05-16T08:39:33.720Z,40.40
2023-05-16T08:42:36.612Z,40.20
2023-05-16T08:45:40.149Z,40.10
2023-05-16T08:48:46.263Z,39.80
2023-05-16T08:51:48.954Z,39.70
2023-05-16T08:55:01.973Z,39.70
2023-05-16T08:58:11.553Z,39.70
2023-05-16T09:01:14.119Z,39.70
2023-05-16T09:04:16.528Z,39.70
2023-05-16T09:07:18.841Z,39.30
2023-05-16T09:10:21.919Z,39.20
2023-05-16T09:13:26.002Z,39.20
2023-05-16T09:16:28.095Z,39.30
2023-05-16T09:19:43.434Z,39.20
2023-05-16T09:22:59.043Z,39.20
2023-05-16T09:26:01.442Z,39.20
2023-05-16T09:29:11.797Z,39.00
2023-05-16T09:32:15.421Z,39.00
2023-05-16T09:35:27.337Z,39.00
2023-05-16T09:38:34.022Z,39.20
2023-05-16T09:41:36.557Z,39.30
2023-05-16T09:44:39.352Z,39.00
2023-05-16T09:47:47.727Z,39.00
2023-05-16T09:50:54.390Z,39.20
2023-05-16T09:53:59.070Z,39.00
2023-05-16T09:57:03.161Z,38.90
2023-05-16T10:00:10.406Z,39.00
2023-05-16T10:03:13.444Z,39.20
2023-05-16T10:06:17.060Z,39.10
2023-05-16T10:09:19.726Z,39.10
2023-05-16T10:12:27.890Z,39.20
2023-05-16T10:15:30.944Z,39.00
2023-05-16T10:18:34.217Z,38.50
2023-05-16T10:21:38.806Z,38.60
2023-05-16T10:24:45.910Z,38.70
2023-05-16T10:27:48.790Z,38.90
2023-05-16T10:30:52.346Z,39.00
2023-05-16T10:33:57.035Z,39.30
2023-05-16T10:37:00.392Z,39.30
2023-05-16T10:40:06.901Z,39.30
2023-05-16T10:43:09.859Z,39.30
2023-05-16T10:46:14.109Z,39.50
2023-05-16T10:49:24.507Z,39.30
2023-05-16T10:52:36.889Z,39.30
2023-05-16T10:55:41.095Z,39.50
2023-05-16T10:58:44.864Z,39.60
2023-05-16T11:01:53.515Z,38.60
2023-05-16T11:04:59.518Z,38.70
2023-05-16T11:08:07.437Z,39.20
2023-05-16T11:11:40.828Z,39.40
2023-05-16T11:14:43.584Z,39.30
2023-05-16T11:17:46.405Z,39.20
2023-05-16T11:20:52.965Z,39.20
2023-05-16T11:24:30.379Z,39.10
2023-05-16T11:27:34.382Z,39.30
2023-05-16T11:30:49.714Z,39.30
2023-05-16T11:33:53.801Z,39.20
2023-05-16T11:36:56.702Z,39.10
2023-05-16T11:40:04.105Z,39.00
2023-05-16T11:43:07.572Z,38.90
2023-05-16T11:46:14.508Z,38.90
2023-05-16T11:49:18.199Z,38.90
2023-05-16T11:52:21.598Z,38.80
2023-05-16T11:55:40.422Z,38.90
2023-05-16T11:58:43.753Z,39.00
2023-05-16T12:01:49.130Z,38.90
2023-05-16T12:04:51.157Z,38.80
2023-05-16T12:07:56.782Z,38.80
2023-05-16T12:10:58.818Z,38.90
2023-05-16T12:14:03.006Z,38.80
2023-05-16T12:17:05.377Z,38.60
2023-05-16T12:20:14.580Z,38.60
2023-05-16T12:23:16.883Z,38.50
2023-05-16T12:26:30.864Z,38.40
2023-05-16T12:29:32.926Z,38.40
2023-05-16T12:32:37.877Z,38.30
2023-05-16T12:35:43.166Z,38.30
2023-05-16T12:38:47.676Z,38.40
2023-05-16T12:41:49.668Z,38.60
2023-05-16T12:44:57.104Z,38.60
2023-05-16T12:48:09.122Z,38.50
2023-05-16T12:51:17.760Z,38.60
2023-05-16T12:54:22.671Z,38.60
2023-05-16T12:57:25.061Z,38.80
2023-05-16T13:00:27.474Z,38.60
2023-05-16T13:03:30.572Z,38.60
2023-05-16T13:06:45.357Z,38.60
2023-05-16T13:09:55.339Z,38.60
2023-05-16T13:13:01.825Z,38.70
2023-05-16T13:16:04.342Z,38.60
2023-05-16T13:19:06.546Z,38.70
2023-05-16T13:22:08.853Z,38.90
2023-05-16T13:25:11.771Z,38.90
2023-05-16T13:28:14.171Z,38.80
2023-05-16T13:31:16.757Z,38.90
2023-05-16T13:34:19.593Z,39.00
2023-05-16T13:37:24.285Z,38.90
2023-05-16T13:40:26.599Z,38.80
2023-05-16T13:43:28.591Z,38.90
2023-05-16T13:46:31.096Z,38.90
2023-05-16T13:49:33.165Z,38.70
2023-05-16T13:52:37.696Z,38.60
2023-05-16T13:55:40.079Z,38.50
2023-05-16T13:58:52.898Z,38.50
2023-05-16T14:02:03.233Z,38.30
2023-05-16T14:05:06.496Z,38.20
2023-05-16T14:08:08.499Z,37.90
2023-05-16T14:11:10.902Z,38.00
2023-05-16T14:14:12.890Z,38.20
2023-05-16T14:17:16.795Z,38.10
2023-05-16T14:20:18.778Z,38.20
2023-05-16T14:23:21.162Z,38.20
2023-05-16T14:26:25.302Z,38.20
2023-05-16T14:29:27.842Z,38.20
2023-05-16T14:32:30.105Z,38.00
2023-05-16T14:35:33.294Z,37.80
2023-05-16T14:38:35.391Z,37.20
2023-05-16T14:41:37.936Z,36.20
2023-05-16T14:44:39.985Z,35.20
2023-05-16T14:47:42.305Z,35.40
2023-05-16T14:50:44.413Z,35.80
2023-05-16T14:53:47.309Z,36.00
2023-05-16T14:56:49.329Z,36.30
2023-05-16T14:59:51.626Z,36.60
2023-05-16T15:02:53.831Z,36.50
2023-05-16T15:05:56.161Z,36.70
2023-05-16T15:08:58.101Z,36.90
2023-05-16T15:12:01.957Z,36.50
2023-05-16T15:15:04.433Z,36.10
2023-05-16T15:18:07.003Z,35.70
2023-05-16T15:21:09.670Z,35.90
2023-05-16T15:24:13.066Z,35.80
2023-05-16T15:27:15.161Z,35.10
2023-05-16T15:30:17.437Z,35.00
2023-05-16T15:33:19.776Z,35.10
2023-05-16T15:36:22.109Z,35.40
2023-05-16T15:39:25.971Z,35.30
2023-05-16T15:42:28.258Z,35.40
2023-05-16T15:45:30.937Z,35.20
2023-05-16T15:48:33.557Z,35.20
2023-05-16T15:51:35.687Z,35.20
2023-05-16T15:54:38.075Z,35.00
2023-05-16T15:57:40.592Z,35.20
2023-05-16T16:00:43.532Z,35.10
2023-05-16T16:03:46.403Z,34.70
2023-05-16T16:06:51.811Z,34.10
2023-05-16T16:09:53.838Z,33.90
2023-05-16T16:13:01.276Z,34.10
2023-05-16T16:16:06.624Z,34.20
2023-05-16T16:19:09.250Z,33.30
2023-05-16T16:22:11.481Z,33.50
2023-05-16T16:25:16.162Z,33.50
2023-05-16T16:28:18.824Z,33.60
2023-05-16T16:31:22.319Z,33.90
2023-05-16T16:34:24.308Z,34.10
2023-05-16T16:37:26.769Z,34.40
2023-05-16T16:40:28.900Z,34.20
2023-05-16T16:43:31.137Z,34.00
2023-05-16T16:46:33.181Z,33.80
2023-05-16T16:49:35.862Z,33.50
2023-05-16T16:52:37.917Z,34.10
2023-05-16T16:55:42.404Z,34.20
2023-05-16T16:58:44.460Z,34.30
2023-05-16T17:01:46.904Z,34.50
2023-05-16T17:04:48.930Z,34.60
2023-05-16T17:07:52.391Z,33.90
2023-05-16T17:10:54.372Z,33.00
2023-05-16T17:13:59.828Z,32.00
2023-05-16T17:17:02.030Z,31.20
2023-05-16T17:20:07.918Z,31.60
2023-05-16T17:23:10.043Z,31.10
2023-05-16T17:26:13.743Z,30.80
2023-05-16T17:29:19.172Z,30.20
2023-05-16T17:32:21.813Z,30.30
2023-05-16T17:35:23.763Z,30.30
2023-05-16T17:38:26.093Z,30.10
2023-05-16T17:41:28.409Z,30.60
2023-05-16T17:44:30.672Z,30.50
2023-05-16T17:47:33.040Z,30.20
2023-05-16T17:50:35.986Z,30.50
2023-05-16T17:53:38.420Z,31.20
2023-05-16T17:56:40.766Z,31.40
2023-05-16T17:59:42.747Z,30.60
2023-05-16T18:02:45.193Z,30.40
2023-05-16T18:05:48.327Z,30.60
2023-05-16T18:08:50.623Z,29.80
2023-05-16T18:11:52.798Z,29.70
2023-05-16T18:14:55.089Z,29.20
2023-05-16T18:17:57.220Z,29.20
2023-05-16T18:20:59.895Z,29.20
2023-05-16T18:24:03.085Z,28.70
2023-05-16T18:27:05.608Z,29.70
2023-05-16T18:30:08.485Z,31.00
2023-05-16T18:33:10.859Z,31.10
2023-05-16T18:36:12.910Z,31.70
2023-05-16T18:39:17.006Z,31.80
2023-05-16T18:42:19.064Z,32.10
2023-05-16T18:45:22.993Z,32.30
2023-05-16T18:48:25.061Z,32.50
2023-05-16T18:51:29.627Z,32.20
2023-05-16T18:54:31.643Z,32.70
2023-05-16T18:57:34.689Z,33.10
2023-05-16T19:00:36.784Z,32.90
2023-05-16T19:03:43.955Z,33.10
2023-05-16T19:06:55.035Z,33.30
2023-05-16T19:09:57.319Z,32.90
2023-05-16T19:13:06.999Z,32.50
2023-05-16T19:16:11.676Z,31.80
2023-05-16T19:19:13.936Z,32.30
2023-05-16T19:22:16.281Z,31.90
2023-05-16T19:25:18.488Z,32.00
2023-05-16T19:28:21.850Z,32.10
2023-05-16T19:31:23.967Z,32.10
2023-05-16T19:34:28.966Z,32.60
2023-05-16T19:37:31.082Z,32.20
2023-05-16T19:40:35.296Z,32.50
2023-05-16T19:43:37.302Z,32.70
2023-05-16T19:46:39.929Z,32.20
2023-05-16T19:49:43.152Z,32.30
2023-05-16T19:52:46.890Z,32.70
2023-05-16T19:55:49.473Z,32.90
2023-05-16T19:58:52.031Z,32.80
2023-05-16T20:01:53.946Z,33.00
2023-05-16T20:04:56.458Z,32.80
2023-05-16T20:07:59.007Z,33.00
2023-05-16T20:11:01.314Z,33.20
2023-05-16T20:14:03.374Z,33.30
2023-05-16T20:17:07.625Z,33.30
2023-05-16T20:20:10.685Z,33.30
2023-05-16T20:23:13.293Z,33.30
2023-05-16T20:26:15.631Z,33.20
2023-05-16T20:29:17.893Z,33.20
2023-05-16T20:32:20.239Z,33.30
2023-05-16T20:35:22.650Z,33.30
2023-05-16T20:38:24.658Z,33.30
2023-05-16T20:41:26.979Z,33.40
2023-05-16T20:44:29.305Z,33.50
2023-05-16T20:47:31.814Z,33.50
2023-05-16T20:50:36.354Z,33.50
2023-05-16T20:53:38.648Z,33.60
2023-05-16T20:56:42.078Z,33.60
2023-05-16T20:59:44.986Z,33.60
2023-05-16T21:02:47.146Z,33.60
2023-05-16T21:05:49.621Z,33.60
2023-05-16T21:08:51.832Z,33.60
2023-05-16T21:11:54.505Z,33.60
2023-05-16T21:14:56.570Z,33.60
2023-05-16T21:17:58.973Z,33.70
2023-05-16T21:21:01.867Z,33.70
2023-05-16T21:24:05.423Z,33.70
2023-05-16T21:27:09.679Z,33.60
2023-05-16T21:30:13.105Z,33.60
2023-05-16T21:33:15.821Z,33.50
2023-05-16T21:36:19.995Z,33.50
2023-05-16T21:39:23.087Z,33.50
2023-05-16T21:42:28.204Z,33.50
2023-05-16T21:45:30.727Z,33.50
2023-05-16T21:48:33.298Z,33.60
2023-05-16T21:51:35.484Z,33.60
2023-05-16T21:54:38.475Z,33.60
2023-05-16T21:57:40.571Z,33.60
2023-05-16T22:00:42.818Z,33.60
2023-05-16T22:03:44.835Z,33.60
2023-05-16T22:06:47.374Z,33.60
2023-05-16T22:09:53.394Z,33.60
2023-05-16T22:12:55.721Z,33.60
2023-05-16T22:16:04.521Z,33.50
2023-05-16T22:19:08.881Z,33.60
2023-05-16T22:22:11.522Z,33.50
2023-05-16T22:25:13.743Z,33.40
2023-05-16T22:28:15.793Z,33.40
2023-05-16T22:31:18.053Z,33.40
2023-05-16T22:34:20.053Z,33.50
2023-05-16T22:37:22.601Z,33.50
2023-05-16T22:40:26.493Z,33.50
2023-05-16T22:43:28.694Z,33.40
2023-05-16T22:46:30.644Z,33.40
2023-05-16T22:49:33.225Z,33.40
2023-05-16T22:52:41.830Z,33.40
2023-05-16T22:55:44.239Z,33.30
2023-05-16T22:58:46.231Z,33.30
2023-05-16T23:01:48.607Z,33.40
2023-05-16T23:04:50.579Z,33.30
2023-05-16T23:07:53.295Z,33.30
2023-05-16T23:10:55.750Z,33.30
2023-05-16T23:13:57.998Z,33.30
2023-05-16T23:17:00.029Z,33.30
2023-05-16T23:20:02.631Z,33.30
2023-05-16T23:23:04.662Z,33.20
2023-05-16T23:26:07.551Z,33.20
2023-05-16T23:29:09.513Z,33.20
2023-05-16T23:32:12.050Z,33.20
2023-05-16T23:35:14.074Z,33.20
2023-05-16T23:38:16.330Z,33.20
2023-05-16T23:41:18.326Z,33.30
2023-05-16T23:44:20.571Z,33.20
2023-05-16T23:47:23.001Z,33.20
2023-05-16T23:50:25.317Z,33.20
2023-05-16T23:53:29.361Z,33.20
2023-05-16T23:56:32.834Z,33.20
2023-05-16T23:59:34.734Z,33.20
